Terminal Aerodrome Forecast
Issued by NWS Grand Forks, ND

Home | Current Version | Previous Version | Graphics & Text | Print | Product List | Glossary On
Versions: 1 2 3 4 5 6 7 8 9 10 11 12 13
000
FTUS43 KFGF 190900 AAA
TAFFAR
TAF AMD
KFAR 190917Z 1909/2006 14024G34KT P6SM BKN080
     FM191100 16015G25KT P6SM FEW040
     FM191500 24018G24KT P6SM SCT040=

USA.gov is the U.S. government's official web portal to all federal, state and local government web resources and services.